Time;durP1;ratioP1;P1;durP2;ratioP2;P2;SDS_P1;SDS_P2;PMS_P1;PMS_P2;Temp;Humidity;BMP_temperature;BMP_pressure;BME280_temperature;BME280_humidity;BME280_pressure;Samples;Min_cycle;Max_cycle;Signal;HPM_P1;HPM_P2
2021/04/30 00:01:13;;;;;;;;;;;;;;;0.42;100.00;98900.91;5077367;28;19967;-76
2021/04/30 00:03:40;;;;;;;;;;;;;;;0.35;100.00;98902.72;5077379;28;20023;-76
2021/04/30 00:06:06;;;;;;;;;;;;;;;0.64;100.00;98899.38;5059440;28;19947;-76
2021/04/30 00:08:33;;;;;;;;;;;;;;;0.45;100.00;98900.19;5077239;28;19924;-76
2021/04/30 00:11:00;;;;;;;;;;;;;;;0.31;100.00;98902.63;5077149;28;19928;-76
2021/04/30 00:13:26;;;;;;;;;;;;;;;0.30;100.00;98898.31;5076887;28;19932;-76
2021/04/30 00:15:53;;;;;;;;;;;;;;;0.47;100.00;98902.59;5077109;28;19925;-76
2021/04/30 00:18:20;;;;;;;;;;;;;;;0.16;100.00;98903.47;5076818;28;19924;-77
2021/04/30 00:20:51;;;;;;;;;;;;;;;0.06;100.00;98900.50;5059215;28;19996;-76
2021/04/30 00:23:19;;;;;;;;;;;;;;;0.04;100.00;98898.13;5076799;28;19970;-76
2021/04/30 00:25:46;;;;;;;;;;;;;;;0.06;100.00;98901.31;5076788;28;19932;-76
2021/04/30 00:28:12;;;;;;;;;;;;;;;0.07;100.00;98893.84;5076315;28;19924;-76
2021/04/30 00:30:39;;;;;;;;;;;;;;;0.26;100.00;98893.88;5058123;28;19974;-77
2021/04/30 00:33:06;;;;;;;;;;;;;;;0.25;100.00;98887.59;5076458;28;19967;-76
2021/04/30 00:35:33;;;;;;;;;;;;;;;0.23;100.00;98889.13;5076546;28;19928;-76
2021/04/30 00:37:59;;;;;;;;;;;;;;;0.13;100.00;98889.66;5076455;28;19931;-76
2021/04/30 00:40:26;;;;;;;;;;;;;;;-0.10;100.00;98884.06;5058264;28;19928;-77
2021/04/30 00:43:00;;;;;;;;;;;;;;;-0.04;100.00;98888.09;5059985;28;20065;-77
2021/04/30 00:45:30;;;;;;;;;;;;;;;0.03;100.00;98884.72;5092075;28;20375;-77
2021/04/30 00:47:58;;;;;;;;;;;;;;;-0.07;100.00;98886.06;5076155;28;19929;-77
2021/04/30 00:50:25;;;;;;;;;;;;;;;-0.20;100.00;98890.88;5058343;28;20361;-77
2021/04/30 00:52:52;;;;;;;;;;;;;;;0.18;100.00;98884.69;5076233;28;19955;-77
2021/04/30 00:55:20;;;;;;;;;;;;;;;0.34;100.00;98887.38;5076141;28;19924;-77
2021/04/30 00:57:50;;;;;;;;;;;;;;;0.40;100.00;98883.19;5076117;28;19947;-77
2021/04/30 01:00:16;;;;;;;;;;;;;;;0.32;100.00;98890.47;5076292;28;20271;-77
2021/04/30 01:02:43;;;;;;;;;;;;;;;0.10;100.00;98882.94;5075758;28;19951;-77
2021/04/30 01:05:11;;;;;;;;;;;;;;;-0.13;100.00;98882.03;5076065;28;20384;-77
2021/04/30 01:07:38;;;;;;;;;;;;;;;-0.30;100.00;98883.19;5091335;28;19932;-77
2021/04/30 01:10:05;;;;;;;;;;;;;;;-0.37;100.00;98885.78;5075796;28;20375;-77
2021/04/30 01:12:33;;;;;;;;;;;;;;;-0.35;100.00;98888.19;5058002;28;19954;-77
2021/04/30 01:15:00;;;;;;;;;;;;;;;-0.28;100.00;98891.88;5075630;28;19935;-77
2021/04/30 01:17:29;;;;;;;;;;;;;;;-0.27;100.00;98890.72;5075714;28;20021;-77
2021/04/30 01:19:56;;;;;;;;;;;;;;;0.15;100.00;98884.59;5075836;28;19924;-77
2021/04/30 01:22:42;;;;;;;;;;;;;;;0.22;100.00;98888.31;5075510;28;19931;-77
2021/04/30 01:25:11;;;;;;;;;;;;;;;-0.05;100.00;98886.53;5091250;28;20003;-77
2021/04/30 01:27:39;;;;;;;;;;;;;;;-0.29;100.00;98887.53;5075574;28;19931;-77
2021/04/30 01:30:08;;;;;;;;;;;;;;;-0.40;100.00;98880.19;5091002;28;19931;-77
2021/04/30 01:32:34;;;;;;;;;;;;;;;-0.47;100.00;98885.53;5075524;28;20013;-78
2021/04/30 01:35:02;;;;;;;;;;;;;;;-0.57;100.00;98881.38;5075472;28;19971;-78
2021/04/30 01:37:29;;;;;;;;;;;;;;;-0.51;100.00;98884.63;5048720;28;19958;-77
2021/04/30 01:39:56;;;;;;;;;;;;;;;-0.40;100.00;98885.69;5075010;28;19994;-78
2021/04/30 01:42:23;;;;;;;;;;;;;;;-0.40;100.00;98880.19;5075193;28;19925;-77
2021/04/30 01:45:15;;;;;;;;;;;;;;;-0.14;100.00;98883.19;5075207;28;19928;-77
2021/04/30 01:47:41;;;;;;;;;;;;;;;-0.10;100.00;98878.56;5075207;28;19932;-77
2021/04/30 01:50:11;;;;;;;;;;;;;;;-0.35;100.00;98893.66;5075215;28;20039;-77
2021/04/30 01:52:39;;;;;;;;;;;;;;;-0.66;100.00;98885.44;5075131;28;19924;-77
2021/04/30 01:55:05;;;;;;;;;;;;;;;-0.76;100.00;98896.94;5074860;28;19932;-77
2021/04/30 01:57:34;;;;;;;;;;;;;;;-0.81;100.00;98891.72;5057027;28;19929;-77
2021/04/30 02:00:01;;;;;;;;;;;;;;;-0.76;100.00;98889.50;5074827;28;19982;-77
2021/04/30 02:02:50;;;;;;;;;;;;;;;-0.31;100.00;98894.53;5074889;28;19931;-77
2021/04/30 02:05:19;;;;;;;;;;;;;;;-0.27;100.00;98889.91;5074869;28;19925;-77
2021/04/30 02:07:45;;;;;;;;;;;;;;;-0.36;100.00;98892.06;5074552;28;19925;-77
2021/04/30 02:10:20;;;;;;;;;;;;;;;-0.56;100.00;98887.66;5074677;28;20264;-80
2021/04/30 02:12:47;;;;;;;;;;;;;;;-0.94;100.00;98892.94;5074697;28;19928;-77
2021/04/30 02:15:14;;;;;;;;;;;;;;;-0.95;100.00;98885.84;5056823;28;19932;-77
2021/04/30 02:17:41;;;;;;;;;;;;;;;-0.90;100.00;98893.81;5074130;28;19929;-77
2021/04/30 02:20:08;;;;;;;;;;;;;;;-0.85;100.00;98896.31;5056457;28;20007;-77
2021/04/30 02:22:38;;;;;;;;;;;;;;;-0.82;100.00;98893.66;5090001;28;19928;-77
2021/04/30 02:25:07;;;;;;;;;;;;;;;-0.91;100.00;98897.72;5074595;28;20039;-77
2021/04/30 02:27:34;;;;;;;;;;;;;;;-0.96;100.00;98889.75;5074467;28;19948;-77
2021/04/30 02:30:00;;;;;;;;;;;;;;;-0.63;100.00;98892.94;5089900;28;20013;-77
2021/04/30 02:32:29;;;;;;;;;;;;;;;-0.67;100.00;98892.06;5056275;28;19931;-77
2021/04/30 02:34:56;;;;;;;;;;;;;;;-0.94;100.00;98896.47;5089854;28;19948;-77
2021/04/30 02:37:26;;;;;;;;;;;;;;;-1.00;100.00;98889.66;5074093;28;19932;-77
2021/04/30 02:39:53;;;;;;;;;;;;;;;-0.89;100.00;98896.22;5074174;28;20014;-77
2021/04/30 02:42:20;;;;;;;;;;;;;;;-0.81;100.00;98891.72;5074127;28;19951;-77
2021/04/30 02:44:48;;;;;;;;;;;;;;;-0.90;100.00;98889.16;5073878;28;19967;-77
2021/04/30 02:47:15;;;;;;;;;;;;;;;-0.91;100.00;98897.72;5073948;28;19938;-77
2021/04/30 02:49:45;;;;;;;;;;;;;;;-1.04;100.00;98888.75;5073626;28;20291;-77
2021/04/30 02:52:16;;;;;;;;;;;;;;;-1.10;100.00;98887.44;5089589;28;19931;-77
2021/04/30 02:54:43;;;;;;;;;;;;;;;-1.15;100.00;98886.91;5073861;28;19924;-77
2021/04/30 02:57:12;;;;;;;;;;;;;;;-1.17;100.00;98897.41;5089443;28;20368;-77
2021/04/30 02:59:38;;;;;;;;;;;;;;;-1.09;100.00;98897.25;5073566;28;19929;-77
2021/04/30 03:02:05;;;;;;;;;;;;;;;-1.03;100.00;98889.56;5073895;28;19932;-77
2021/04/30 03:04:32;;;;;;;;;;;;;;;-0.95;100.00;98888.59;5089314;28;19928;-77
2021/04/30 03:07:00;;;;;;;;;;;;;;;-1.00;100.00;98891.59;5073640;28;19929;-77
2021/04/30 03:09:27;;;;;;;;;;;;;;;-0.82;100.00;98890.91;5073670;28;19925;-76
2021/04/30 03:11:53;;;;;;;;;;;;;;;-0.91;100.00;98892.25;5073384;28;20395;-77
2021/04/30 03:14:20;;;;;;;;;;;;;;;-0.96;100.00;98887.81;5073320;28;20359;-77
2021/04/30 03:16:48;;;;;;;;;;;;;;;-1.01;100.00;98887.25;5073395;28;19924;-77
2021/04/30 03:19:14;;;;;;;;;;;;;;;-1.01;100.00;98876.28;5055000;28;19929;-77
2021/04/30 03:21:42;;;;;;;;;;;;;;;-0.95;100.00;98885.84;5072979;28;19929;-77
2021/04/30 03:24:09;;;;;;;;;;;;;;;-0.85;100.00;98877.13;5072964;28;19924;-77
2021/04/30 03:26:36;;;;;;;;;;;;;;;-0.93;100.00;98889.03;5073256;28;19928;-76
2021/04/30 03:29:03;;;;;;;;;;;;;;;-1.21;100.00;98874.59;5053972;28;20394;-76
2021/04/30 03:31:30;;;;;;;;;;;;;;;-1.28;100.00;98877.13;5072803;28;20455;-76
2021/04/30 03:34:00;;;;;;;;;;;;;;;-1.27;100.00;98884.22;5072809;28;20011;-76
2021/04/30 03:36:27;;;;;;;;;;;;;;;-1.24;100.00;98878.03;5073288;28;19959;-76
2021/04/30 03:38:55;;;;;;;;;;;;;;;-1.17;100.00;98875.47;5055356;28;20027;-76
2021/04/30 03:41:35;;;;;;;;;;;;;;;-1.20;100.00;98871.50;5111083;27;19912;-78
2021/04/30 03:44:02;;;;;;;;;;;;;;;-1.14;100.00;98869.28;5111308;28;19924;-78
2021/04/30 03:46:28;;;;;;;;;;;;;;;-0.71;100.00;98870.03;5126992;27;20432;-78
2021/04/30 03:48:55;;;;;;;;;;;;;;;-0.79;100.00;98861.97;5110929;28;19928;-78
2021/04/30 03:51:26;;;;;;;;;;;;;;;-0.91;100.00;98873.03;5110892;28;19932;-78
2021/04/30 03:53:52;;;;;;;;;;;;;;;-1.02;100.00;98869.22;5092738;28;19931;-78
2021/04/30 03:56:19;;;;;;;;;;;;;;;-1.38;100.00;98867.47;5126412;27;19924;-78
2021/04/30 03:58:45;;;;;;;;;;;;;;;-1.48;100.00;98864.41;5111048;28;19924;-78
2021/04/30 04:01:12;;;;;;;;;;;;;;;-1.46;100.00;98864.88;5110900;28;20016;-78
2021/04/30 04:03:39;;;;;;;;;;;;;;;-1.50;100.00;98866.72;5126335;27;19962;-78
2021/04/30 04:06:05;;;;;;;;;;;;;;;-1.44;100.00;98862.59;5092626;28;19969;-78
2021/04/30 04:08:32;;;;;;;;;;;;;;;-1.12;100.00;98865.03;5092389;28;19969;-78
2021/04/30 04:10:58;;;;;;;;;;;;;;;-1.11;100.00;98863.09;5126537;27;20448;-78
2021/04/30 04:13:26;;;;;;;;;;;;;;;-1.40;100.00;98858.00;5110459;28;19931;-78
2021/04/30 04:15:54;;;;;;;;;;;;;;;-1.53;100.00;98853.72;5092402;28;19924;-77
2021/04/30 04:18:23;;;;;;;;;;;;;;;-1.59;100.00;98852.38;5110199;28;19931;-78
2021/04/30 04:20:50;;;;;;;;;;;;;;;-1.57;100.00;98863.78;5110374;28;19924;-78
2021/04/30 04:23:16;;;;;;;;;;;;;;;-1.51;100.00;98859.63;5110415;28;19924;-78
2021/04/30 04:25:43;;;;;;;;;;;;;;;-1.79;100.00;98861.59;5091896;28;19969;-78
2021/04/30 04:28:09;;;;;;;;;;;;;;;-1.82;100.00;98863.09;5126007;27;19928;-78
2021/04/30 04:30:36;;;;;;;;;;;;;;;-1.54;100.00;98869.34;5110052;28;19966;-78
2021/04/30 04:33:03;;;;;;;;;;;;;;;-1.65;100.00;98868.25;5092071;28;20424;-78
2021/04/30 04:35:30;;;;;;;;;;;;;;;-1.44;100.00;98870.81;5110121;28;20386;-78
2021/04/30 04:37:57;;;;;;;;;;;;;;;-1.40;100.00;98858.00;5110148;28;19931;-78
2021/04/30 04:40:25;;;;;;;;;;;;;;;-1.24;100.00;98869.81;5074698;28;19923;-78
2021/04/30 04:42:52;;;;;;;;;;;;;;;-1.59;100.00;98877.03;5091971;28;19927;-78
2021/04/30 04:45:19;;;;;;;;;;;;;;;-1.64;100.00;98882.75;5091750;28;19924;-77
2021/04/30 04:47:46;;;;;;;;;;;;;;;-1.64;100.00;98880.03;5070696;28;20523;-77
2021/04/30 04:50:13;;;;;;;;;;;;;;;-1.83;100.00;98882.59;5086611;28;19928;-78
2021/04/30 04:52:39;;;;;;;;;;;;;;;-1.88;100.00;98887.16;5086625;28;19978;-77
2021/04/30 04:55:07;;;;;;;;;;;;;;;-1.78;100.00;98896.03;5087296;28;19928;-77
2021/04/30 04:57:33;;;;;;;;;;;;;;;-1.50;100.00;98892.16;5058195;28;19928;-77
2021/04/30 05:00:00;;;;;;;;;;;;;;;-1.36;100.00;98889.84;5053496;28;19924;-77
2021/04/30 05:02:28;;;;;;;;;;;;;;;-1.07;100.00;98888.66;5054057;28;19928;-78
2021/04/30 05:04:54;;;;;;;;;;;;;;;-0.99;100.00;98885.78;5083237;28;19934;-78
2021/04/30 05:07:21;;;;;;;;;;;;;;;-0.93;100.00;98886.31;5088290;28;19938;-77
2021/04/30 05:09:48;;;;;;;;;;;;;;;-1.22;100.00;98892.16;5083576;28;19948;-77
2021/04/30 05:12:14;;;;;;;;;;;;;;;-1.29;100.00;98881.81;5087398;28;20011;-78
2021/04/30 05:14:41;;;;;;;;;;;;;;;-1.34;100.00;98889.47;5085617;28;20018;-77
2021/04/30 05:17:08;;;;;;;;;;;;;;;-1.24;100.00;98889.78;5053173;28;19951;-77
2021/04/30 05:19:35;;;;;;;;;;;;;;;-1.33;100.00;98902.06;5081339;28;19928;-78
2021/04/30 05:22:04;;;;;;;;;;;;;;;-1.25;100.00;98888.19;5084675;28;19928;-77
2021/04/30 05:24:33;;;;;;;;;;;;;;;-0.75;100.00;98890.28;5090384;28;19930;-77
2021/04/30 05:27:02;;;;;;;;;;;;;;;-0.42;100.00;98893.47;5059505;28;19924;-80
2021/04/30 05:29:32;;;;;;;;;;;;;;;-0.16;100.00;98893.72;5089650;28;19935;-80
2021/04/30 05:31:58;;;;;;;;;;;;;;;0.10;100.00;98893.13;5083229;28;19924;-80
2021/04/30 05:34:25;;;;;;;;;;;;;;;0.75;100.00;98898.47;5086229;28;20385;-80
2021/04/30 05:36:51;;;;;;;;;;;;;;;1.09;100.00;98903.03;5080477;28;19928;-80
2021/04/30 05:39:18;;;;;;;;;;;;;;;1.05;100.00;98902.19;5083996;28;19928;-80
2021/04/30 05:41:45;;;;;;;;;;;;;;;1.59;100.00;98894.50;5067674;28;20556;-81
2021/04/30 05:44:13;;;;;;;;;;;;;;;1.81;100.00;98896.44;5064808;28;19931;-81
2021/04/30 05:46:40;;;;;;;;;;;;;;;1.92;100.00;98897.38;5091402;28;20383;-80
2021/04/30 05:49:07;;;;;;;;;;;;;;;2.05;100.00;98897.97;5085431;28;20053;-80
2021/04/30 05:51:33;;;;;;;;;;;;;;;1.47;100.00;98900.19;5053994;28;19924;-82
2021/04/30 05:54:00;;;;;;;;;;;;;;;1.48;100.00;98899.06;5081671;28;19935;-79
2021/04/30 05:56:28;;;;;;;;;;;;;;;1.27;100.00;98895.91;5089307;28;20065;-79
2021/04/30 05:58:55;;;;;;;;;;;;;;;1.07;100.00;98905.38;5096616;28;19931;-80
2021/04/30 06:01:22;;;;;;;;;;;;;;;1.02;100.00;98902.09;5072761;28;19924;-80
2021/04/30 06:03:49;;;;;;;;;;;;;;;1.29;100.00;98899.09;5070515;28;20467;-80
2021/04/30 06:06:16;;;;;;;;;;;;;;;1.54;100.00;98897.56;5082750;28;20276;-80
2021/04/30 06:08:43;;;;;;;;;;;;;;;2.26;100.00;98894.75;5088474;28;19931;-80
2021/04/30 06:11:09;;;;;;;;;;;;;;;2.27;100.00;98899.09;5059408;28;20283;-80
2021/04/30 06:13:36;;;;;;;;;;;;;;;2.13;100.00;98902.44;5052036;28;19964;-79
2021/04/30 06:16:03;;;;;;;;;;;;;;;2.33;100.00;98894.84;5080815;28;19931;-80
2021/04/30 06:18:30;;;;;;;;;;;;;;;1.98;100.00;98902.59;5086417;28;20299;-80
2021/04/30 06:20:57;;;;;;;;;;;;;;;2.24;100.00;98892.38;5088610;28;19930;-80
2021/04/30 06:23:24;;;;;;;;;;;;;;;2.37;100.00;98895.66;5057068;28;19925;-80
2021/04/30 06:25:50;;;;;;;;;;;;;;;2.66;100.00;98903.16;5064353;28;19932;-80
2021/04/30 06:28:17;;;;;;;;;;;;;;;3.19;100.00;98888.00;5038511;28;19925;-81
2021/04/30 06:30:44;;;;;;;;;;;;;;;3.43;100.00;98892.97;5085764;28;20532;-81
2021/04/30 06:33:10;;;;;;;;;;;;;;;4.02;100.00;98898.19;5073351;28;20011;-80
2021/04/30 06:35:37;;;;;;;;;;;;;;;5.10;100.00;98892.41;5076461;28;19931;-80
2021/04/30 06:38:04;;;;;;;;;;;;;;;6.26;100.00;98894.50;5074476;28;20468;-81
2021/04/30 06:40:31;;;;;;;;;;;;;;;6.63;100.00;98894.84;5074200;28;19925;-79
2021/04/30 06:42:58;;;;;;;;;;;;;;;7.08;100.00;98889.09;5076801;28;19931;-80
2021/04/30 06:45:25;;;;;;;;;;;;;;;7.14;100.00;98881.91;5051877;28;19932;-80
2021/04/30 06:47:53;;;;;;;;;;;;;;;6.80;100.00;98877.31;5051513;28;19928;-78
2021/04/30 06:50:20;;;;;;;;;;;;;;;7.08;100.00;98885.50;5090595;28;19930;-78
2021/04/30 06:52:47;;;;;;;;;;;;;;;7.67;100.00;98880.78;5065718;28;19951;-77
2021/04/30 06:55:14;;;;;;;;;;;;;;;7.29;100.00;98879.84;5055066;28;19947;-80
2021/04/30 06:57:41;;;;;;;;;;;;;;;8.07;100.00;98872.53;5051249;28;19928;-80
2021/04/30 07:00:09;;;;;;;;;;;;;;;8.34;100.00;98873.47;5079658;28;19932;-82
2021/04/30 07:02:36;;;;;;;;;;;;;;;8.29;100.00;98870.34;5077077;28;19925;-81
2021/04/30 07:05:03;;;;;;;;;;;;;;;8.37;100.00;98867.09;5073039;28;19931;-82
2021/04/30 07:07:31;;;;;;;;;;;;;;;8.90;100.00;98870.06;5074288;28;20688;-81
2021/04/30 07:09:58;;;;;;;;;;;;;;;7.35;100.00;98876.25;5068604;28;19967;-80
2021/04/30 07:12:25;;;;;;;;;;;;;;;6.44;100.00;98881.38;5079649;28;20260;-81
2021/04/30 07:14:53;;;;;;;;;;;;;;;7.14;100.00;98890.25;5082299;28;19974;-80
2021/04/30 07:17:19;;;;;;;;;;;;;;;8.73;100.00;98886.97;5064530;28;19935;-81
2021/04/30 07:19:46;;;;;;;;;;;;;;;8.61;100.00;98876.38;5072744;28;20283;-77
2021/04/30 07:22:14;;;;;;;;;;;;;;;7.75;100.00;98874.78;5074070;28;19928;-79
2021/04/30 07:24:41;;;;;;;;;;;;;;;7.53;100.00;98881.66;5085853;28;19931;-80
2021/04/30 07:27:08;;;;;;;;;;;;;;;8.21;100.00;98877.94;5075751;28;19931;-83
2021/04/30 07:29:49;;;;;;;;;;;;;;;9.96;100.00;98880.47;5075236;28;19967;-82
2021/04/30 07:32:15;;;;;;;;;;;;;;;11.36;100.00;98871.38;5072638;28;19928;-82
2021/04/30 07:34:42;;;;;;;;;;;;;;;12.18;100.00;98868.22;5056413;28;19928;-81
2021/04/30 07:37:09;;;;;;;;;;;;;;;12.44;100.00;98856.75;5084866;28;19951;-80
2021/04/30 07:39:36;;;;;;;;;;;;;;;12.75;100.00;98849.47;5070083;28;19924;-80
2021/04/30 07:42:03;;;;;;;;;;;;;;;12.18;100.00;98860.63;5056057;28;19928;-80
2021/04/30 07:44:30;;;;;;;;;;;;;;;12.84;100.00;98845.25;5076355;28;19967;-79
2021/04/30 07:46:57;;;;;;;;;;;;;;;12.58;100.00;98856.38;5070970;28;20675;-79
2021/04/30 07:49:25;;;;;;;;;;;;;;;12.54;100.00;98844.44;5088778;28;20396;-79
2021/04/30 07:51:53;;;;;;;;;;;;;;;12.71;100.00;98853.59;5071735;28;19924;-78
2021/04/30 07:54:20;;;;;;;;;;;;;;;12.74;100.00;98847.91;5071138;28;19924;-78
2021/04/30 07:56:47;;;;;;;;;;;;;;;12.58;100.00;98842.34;5088622;28;20576;-80
2021/04/30 07:59:14;;;;;;;;;;;;;;;13.06;100.00;98841.41;5083097;28;19924;-78
2021/04/30 08:01:41;;;;;;;;;;;;;;;12.14;100.00;98840.34;5088516;28;20527;-78
2021/04/30 08:04:08;;;;;;;;;;;;;;;12.37;100.00;98844.94;5079448;28;19924;-80
2021/04/30 08:06:35;;;;;;;;;;;;;;;11.90;100.00;98838.94;5050584;28;19924;-80
2021/04/30 08:09:01;;;;;;;;;;;;;;;13.32;100.00;98829.00;5070760;28;19935;-79
2021/04/30 08:11:28;;;;;;;;;;;;;;;12.09;100.00;98835.25;5070868;28;20321;-78
2021/04/30 08:13:55;;;;;;;;;;;;;;;11.68;100.00;98846.28;5081029;28;19924;-81
2021/04/30 08:16:22;;;;;;;;;;;;;;;10.77;100.00;98854.66;5088582;28;19966;-76
2021/04/30 08:18:49;;;;;;;;;;;;;;;10.23;100.00;98849.72;5084355;28;19931;-77
2021/04/30 08:21:15;;;;;;;;;;;;;;;11.08;100.00;98851.63;5075175;28;19925;-79
2021/04/30 08:23:42;;;;;;;;;;;;;;;11.90;100.00;98855.75;5076783;28;20065;-77
2021/04/30 08:26:09;;;;;;;;;;;;;;;12.26;100.00;98841.63;5079871;28;19924;-78
2021/04/30 08:28:36;;;;;;;;;;;;;;;11.56;100.00;98852.53;5080051;28;20120;-78
2021/04/30 08:31:03;;;;;;;;;;;;;;;11.85;100.00;98847.88;5053402;28;20372;-79
2021/04/30 08:33:29;;;;;;;;;;;;;;;11.60;100.00;98856.03;5039546;28;19928;-78
2021/04/30 08:35:56;;;;;;;;;;;;;;;12.26;100.00;98838.81;5058315;28;19933;-81
2021/04/30 08:38:22;;;;;;;;;;;;;;;11.92;100.00;98839.28;5056451;28;19931;-79
2021/04/30 08:40:49;;;;;;;;;;;;;;;10.84;100.00;98840.53;5074812;28;20546;-77
2021/04/30 08:43:17;;;;;;;;;;;;;;;10.69;100.00;98846.84;5073948;28;20014;-79
2021/04/30 08:45:44;;;;;;;;;;;;;;;10.73;100.00;98850.34;5055006;28;19931;-78
2021/04/30 08:48:11;;;;;;;;;;;;;;;11.17;100.00;98847.03;5089474;28;19976;-79
2021/04/30 08:50:38;;;;;;;;;;;;;;;10.44;100.00;98854.91;5067701;28;20014;-79
2021/04/30 08:53:05;;;;;;;;;;;;;;;10.82;100.00;98854.16;5068484;28;19978;-78
2021/04/30 08:55:33;;;;;;;;;;;;;;;11.35;100.00;98846.63;5073259;28;20612;-78
2021/04/30 08:58:02;;;;;;;;;;;;;;;11.93;100.00;98838.06;5090192;28;19924;-79
2021/04/30 09:00:30;;;;;;;;;;;;;;;11.67;100.00;98850.31;5060898;28;20013;-79
2021/04/30 09:02:56;;;;;;;;;;;;;;;11.38;100.00;98851.34;5092273;28;19928;-84
2021/04/30 09:05:25;;;;;;;;;;;;;;;11.31;100.00;98846.72;5095185;28;19924;-82
2021/04/30 09:07:53;;;;;;;;;;;;;;;10.92;100.00;98841.97;5077160;28;20341;-83
2021/04/30 09:10:20;;;;;;;;;;;;;;;10.71;100.00;98858.38;5095936;28;19932;-83
2021/04/30 09:13:01;;;;;;;;;;;;;;;10.41;100.00;98855.75;5111930;28;20007;-82
2021/04/30 09:15:28;;;;;;;;;;;;;;;10.40;100.00;98868.16;5095919;28;20418;-82
2021/04/30 09:17:59;;;;;;;;;;;;;;;10.32;100.00;98858.31;5077996;28;19990;-82
2021/04/30 09:20:36;;;;;;;;;;;;;;;9.52;100.00;98858.44;5094385;28;19931;-81
2021/04/30 09:23:03;;;;;;;;;;;;;;;9.89;100.00;98868.63;5095991;28;19977;-81
2021/04/30 09:25:29;;;;;;;;;;;;;;;9.73;100.00;98862.88;5095737;28;19924;-81
2021/04/30 09:27:58;;;;;;;;;;;;;;;9.92;100.00;98851.03;5077738;28;19928;-81
2021/04/30 09:30:28;;;;;;;;;;;;;;;9.75;100.00;98852.09;5095504;28;19928;-81
2021/04/30 09:33:05;;;;;;;;;;;;;;;9.63;100.00;98850.72;5077641;28;19931;-81
2021/04/30 09:35:32;;;;;;;;;;;;;;;9.09;100.00;98855.47;5078717;28;19963;-81
2021/04/30 09:37:59;;;;;;;;;;;;;;;9.28;100.00;98856.00;5065427;28;19931;-81
2021/04/30 09:40:27;;;;;;;;;;;;;;;9.36;100.00;98846.34;5037071;28;19924;-81
2021/04/30 09:43:06;;;;;;;;;;;;;;;10.05;100.00;98849.22;5057584;28;19925;-81
2021/04/30 09:45:33;;;;;;;;;;;;;;;9.92;100.00;98853.81;5067480;28;20019;-81
2021/04/30 09:48:07;;;;;;;;;;;;;;;10.02;100.00;98856.44;5073717;28;19925;-81
2021/04/30 09:50:34;;;;;;;;;;;;;;;10.05;100.00;98860.38;5074535;28;19924;-80
2021/04/30 09:53:03;;;;;;;;;;;;;;;9.69;100.00;98848.22;5057249;28;20389;-81
2021/04/30 09:55:39;;;;;;;;;;;;;;;9.39;100.00;98842.72;5064286;28;19929;-81
2021/04/30 09:58:13;;;;;;;;;;;;;;;9.69;100.00;98842.63;5064162;28;19975;-80
2021/04/30 10:00:40;;;;;;;;;;;;;;;9.86;100.00;98845.13;5058996;28;19982;-80
2021/04/30 10:03:12;;;;;;;;;;;;;;;10.10;100.00;98843.19;5065135;28;19932;-80
2021/04/30 10:05:58;;;;;;;;;;;;;;;10.03;100.00;98841.25;5049179;28;19925;-81
2021/04/30 10:08:25;;;;;;;;;;;;;;;9.80;100.00;98843.25;5070872;28;19936;-81
2021/04/30 10:10:51;;;;;;;;;;;;;;;9.62;100.00;98853.91;5068603;28;19924;-81
2021/04/30 10:13:24;;;;;;;;;;;;;;;9.31;100.00;98846.81;5065498;28;20383;-80
2021/04/30 10:15:51;;;;;;;;;;;;;;;8.60;100.00;98850.50;5069851;28;19948;-81
2021/04/30 10:18:18;;;;;;;;;;;;;;;8.86;100.00;98852.56;5064942;28;20280;-80
2021/04/30 10:20:45;;;;;;;;;;;;;;;9.14;100.00;98857.78;5051383;28;19925;-80
2021/04/30 10:23:16;;;;;;;;;;;;;;;9.02;100.00;98855.56;5046385;28;20000;-80
2021/04/30 10:25:45;;;;;;;;;;;;;;;9.54;100.00;98852.44;5049874;28;19933;-79
2021/04/30 10:28:15;;;;;;;;;;;;;;;9.22;100.00;98838.97;5044118;28;19929;-80
2021/04/30 10:30:50;;;;;;;;;;;;;;;9.45;100.00;98838.22;5053307;28;19930;-81
2021/04/30 10:33:36;;;;;;;;;;;;;;;9.16;100.00;98838.63;5067698;28;19935;-80
2021/04/30 10:36:23;;;;;;;;;;;;;;;9.15;100.00;98842.63;5059008;28;20013;-80
2021/04/30 10:38:51;;;;;;;;;;;;;;;9.31;100.00;98839.25;5056372;28;19925;-80
2021/04/30 10:41:28;;;;;;;;;;;;;;;9.53;100.00;98850.84;5046965;28;19933;-80
2021/04/30 10:44:18;;;;;;;;;;;;;;;9.45;100.00;98843.81;5040633;28;19995;-80
2021/04/30 10:46:46;;;;;;;;;;;;;;;9.40;100.00;98842.28;5054079;28;19935;-80
2021/04/30 10:49:19;;;;;;;;;;;;;;;9.80;100.00;98837.69;5044178;28;19933;-82
2021/04/30 10:52:04;;;;;;;;;;;;;;;10.26;100.00;98832.09;5048624;28;19999;-80
2021/04/30 10:54:36;;;;;;;;;;;;;;;9.71;100.00;98829.84;5043705;28;19972;-81
2021/04/30 10:57:06;;;;;;;;;;;;;;;9.64;100.00;98838.31;5064090;28;19924;-81
2021/04/30 10:59:40;;;;;;;;;;;;;;;9.74;100.00;98836.59;5042627;28;20465;-81
2021/04/30 11:02:12;;;;;;;;;;;;;;;9.79;100.00;98841.66;5027702;28;19929;-80
2021/04/30 11:04:38;;;;;;;;;;;;;;;9.30;100.00;98831.28;5034129;28;19925;-79
2021/04/30 11:07:08;;;;;;;;;;;;;;;9.03;100.00;98834.84;5032866;28;20024;-80
2021/04/30 11:09:36;;;;;;;;;;;;;;;9.55;100.00;98828.91;5044370;28;19925;-80
2021/04/30 11:12:22;;;;;;;;;;;;;;;9.19;100.00;98821.06;5050170;28;19924;-79
2021/04/30 11:15:06;;;;;;;;;;;;;;;9.09;100.00;98827.59;5049077;28;19925;-80
2021/04/30 11:17:57;;;;;;;;;;;;;;;9.49;100.00;98816.66;5032194;28;19928;-80
2021/04/30 11:20:25;;;;;;;;;;;;;;;9.78;100.00;98828.94;5049541;28;20284;-79
2021/04/30 11:23:20;;;;;;;;;;;;;;;9.99;100.00;98831.38;5044029;28;19933;-79
2021/04/30 11:26:00;;;;;;;;;;;;;;;9.80;100.00;98826.53;5045954;28;19924;-83
2021/04/30 11:28:29;;;;;;;;;;;;;;;9.51;100.00;98833.75;5024771;28;19929;-83
2021/04/30 11:30:59;;;;;;;;;;;;;;;9.44;100.00;98831.06;5031722;28;19924;-81
2021/04/30 11:33:26;;;;;;;;;;;;;;;9.18;100.00;98834.66;5042758;28;19932;-81
2021/04/30 11:35:53;;;;;;;;;;;;;;;9.03;100.00;98829.28;5046088;28;19924;-80
2021/04/30 11:38:32;;;;;;;;;;;;;;;9.16;100.00;98827.47;5044113;28;20327;-80
2021/04/30 11:40:59;;;;;;;;;;;;;;;9.47;100.00;98831.00;5076416;28;19924;-80
2021/04/30 11:43:25;;;;;;;;;;;;;;;9.61;100.00;98832.78;5084384;28;20406;-80
2021/04/30 11:45:54;;;;;;;;;;;;;;;9.46;100.00;98820.28;5101721;28;20375;-80
2021/04/30 11:48:28;;;;;;;;;;;;;;;9.70;100.00;98816.31;5093361;28;19930;-78
2021/04/30 11:51:06;;;;;;;;;;;;;;;9.11;100.00;98825.19;5093291;28;19925;-78
2021/04/30 11:53:33;;;;;;;;;;;;;;;9.38;100.00;98811.25;5093425;28;19931;-78
2021/04/30 11:56:00;;;;;;;;;;;;;;;9.53;100.00;98815.38;5093316;28;19970;-78
2021/04/30 11:58:44;;;;;;;;;;;;;;;9.76;100.00;98818.19;5093230;28;19931;-78
2021/04/30 12:01:15;;;;;;;;;;;;;;;9.82;100.00;98815.72;5093135;28;19924;-78
2021/04/30 12:03:43;;;;;;;;;;;;;;;9.63;100.00;98822.00;5078952;28;19947;-80
2021/04/30 12:06:15;;;;;;;;;;;;;;;10.10;100.00;98823.63;5085589;28;19924;-79
2021/04/30 12:08:50;;;;;;;;;;;;;;;10.56;100.00;98824.34;5078076;28;20023;-79
2021/04/30 12:11:27;;;;;;;;;;;;;;;10.96;100.00;98802.75;5056310;28;19928;-77
2021/04/30 12:13:55;;;;;;;;;;;;;;;10.67;100.00;98815.75;5088706;28;19924;-76
2021/04/30 12:16:23;;;;;;;;;;;;;;;10.45;100.00;98818.16;5082575;28;20427;-77
2021/04/30 12:18:53;;;;;;;;;;;;;;;10.02;100.00;98805.41;5058856;28;20023;-77
2021/04/30 12:21:24;;;;;;;;;;;;;;;9.80;100.00;98807.00;5082498;28;20233;-76
2021/04/30 12:23:51;;;;;;;;;;;;;;;10.08;100.00;98809.31;5063004;28;19924;-77
2021/04/30 12:26:28;;;;;;;;;;;;;;;9.52;100.00;98810.22;5076706;28;19932;-79
2021/04/30 12:28:55;;;;;;;;;;;;;;;9.87;100.00;98807.66;5079599;28;20379;-79
2021/04/30 12:31:28;;;;;;;;;;;;;;;10.83;100.00;98813.00;5085225;28;19939;-78
2021/04/30 12:33:55;;;;;;;;;;;;;;;10.19;100.00;98799.50;5076808;28;19983;-78
2021/04/30 12:36:30;;;;;;;;;;;;;;;10.54;100.00;98800.84;5067641;28;20378;-79
2021/04/30 12:38:58;;;;;;;;;;;;;;;10.83;100.00;98799.03;5073933;28;20011;-80
2021/04/30 12:41:37;;;;;;;;;;;;;;;10.53;100.00;98804.84;5080628;28;19963;-76
2021/04/30 12:44:09;;;;;;;;;;;;;;;10.55;100.00;98797.63;5082883;28;19971;-76
2021/04/30 12:46:37;;;;;;;;;;;;;;;10.46;100.00;98797.41;5095394;28;19923;-76
2021/04/30 12:49:08;;;;;;;;;;;;;;;10.86;100.00;98804.56;5066911;28;20393;-78